Sharon Township, Ohio
Current Conditions -  °F | °C
As of 2:52 PM on Wednesday 28 Jan 2015 (Local Time) from KMFD Reporting Station
Clear Clear  
Wind Chill: 17°   Ceiling: Unl
Heat Index: 25°   Visibility: 10mi
Dew Point: 10°   Wind: 7mph
Humidity: 53%   Direction: 160°SSE
Pressure: 30.27"   Gusts: NA
Location:  40.8848°N, 82.6515°W
Report Text: KMFD 281952Z 16006KT 10SM CLR M04/M12 A3027 RMK AO2 SLP274 T10391122
Loading
Personal Weather Stations






























Interactive Weather Map New forecast layout! Learn more

10-Day Weather Forecast

Advertisements
Track Severe Weather on mobile